createdAt,value
2022-11-02T00:04:15.815Z,180
2022-11-02T00:09:15.866Z,180
2022-11-02T00:14:15.741Z,180
2022-11-02T00:19:15.697Z,180
2022-11-02T00:24:15.140Z,180
2022-11-02T00:29:15.187Z,180
2022-11-02T00:34:15.278Z,158
2022-11-02T00:39:15.307Z,158
2022-11-02T00:44:15.029Z,180
2022-11-02T00:49:15.376Z,180
2022-11-02T00:54:23.215Z,180
2022-11-02T00:59:15.705Z,180
2022-11-02T01:04:15.138Z,158
2022-11-02T01:09:15.531Z,158
2022-11-02T01:14:18.678Z,180
2022-11-02T01:19:15.823Z,180
2022-11-02T01:24:15.195Z,180
2022-11-02T01:29:15.335Z,180
2022-11-02T01:34:15.032Z,180
2022-11-02T01:39:15.318Z,180
2022-11-02T01:44:15.124Z,158
2022-11-02T01:49:15.188Z,158
2022-11-02T01:54:15.387Z,158
2022-11-02T01:59:15.528Z,158
2022-11-02T02:04:15.991Z,180
2022-11-02T02:09:15.185Z,180
2022-11-02T02:14:15.589Z,180
2022-11-02T02:19:15.463Z,180
2022-11-02T02:24:15.182Z,180
2022-11-02T02:29:15.222Z,180
2022-11-02T02:34:15.592Z,180
2022-11-02T02:39:15.091Z,180
2022-11-02T02:44:15.453Z,180
2022-11-02T02:49:15.496Z,180
2022-11-02T02:54:15.838Z,180
2022-11-02T02:59:15.213Z,180
2022-11-02T03:04:16.077Z,180
2022-11-02T03:09:15.551Z,180
2022-11-02T03:14:15.033Z,180
2022-11-02T03:19:15.877Z,180
2022-11-02T03:24:15.641Z,180
2022-11-02T03:29:15.834Z,180
2022-11-02T03:34:15.967Z,180
2022-11-02T03:39:15.464Z,180
2022-11-02T03:44:15.438Z,225
2022-11-02T03:49:15.462Z,225
2022-11-02T03:54:15.835Z,180
2022-11-02T03:59:15.359Z,180
2022-11-02T04:04:15.485Z,202
2022-11-02T04:09:15.619Z,202
2022-11-02T04:14:16.168Z,180
2022-11-02T04:19:15.366Z,180
2022-11-02T04:24:15.774Z,202
2022-11-02T04:29:15.880Z,202
2022-11-02T04:34:15.747Z,180
2022-11-02T04:39:15.658Z,180
2022-11-02T04:44:15.974Z,180
2022-11-02T04:49:15.335Z,180
2022-11-02T04:54:15.499Z,202
2022-11-02T04:59:15.811Z,202
2022-11-02T05:04:16.022Z,180
2022-11-02T05:09:15.419Z,180
2022-11-02T05:14:15.717Z,180
2022-11-02T05:19:15.265Z,180
2022-11-02T05:24:15.997Z,180
2022-11-02T05:29:15.331Z,180
2022-11-02T05:34:15.567Z,180
2022-11-02T05:39:15.674Z,180
2022-11-02T05:44:15.839Z,202
2022-11-02T05:49:16.110Z,202
2022-11-02T05:54:15.715Z,180
2022-11-02T05:59:15.959Z,180
2022-11-02T06:04:16.272Z,180
2022-11-02T06:09:15.704Z,180
2022-11-02T06:14:16.183Z,180
2022-11-02T06:19:48.698Z,180
2022-11-02T06:24:15.999Z,180
2022-11-02T06:29:15.389Z,180
2022-11-02T06:34:15.468Z,180
2022-11-02T06:39:15.479Z,180
2022-11-02T06:44:15.821Z,180
2022-11-02T07:34:16.905Z,180
2022-11-02T07:39:16.134Z,180
2022-11-02T07:44:15.453Z,202
2022-11-02T07:49:21.078Z,202
2022-11-02T07:54:15.320Z,202
2022-11-02T07:59:15.761Z,202
2022-11-02T08:04:16.147Z,180
2022-11-02T08:09:15.539Z,180
2022-11-02T08:14:15.829Z,248
2022-11-02T08:19:16.078Z,248
2022-11-02T08:24:15.408Z,180
2022-11-02T08:29:15.542Z,180
2022-11-02T08:34:16.173Z,225
2022-11-02T08:39:18.888Z,225
2022-11-02T08:44:15.490Z,225
2022-11-02T08:49:15.855Z,225
2022-11-02T08:54:15.486Z,225
2022-11-02T08:59:16.337Z,225
2022-11-02T09:04:16.297Z,225
2022-11-02T09:09:15.453Z,225
2022-11-02T09:14:16.062Z,225
2022-11-02T09:19:15.423Z,225
2022-11-02T09:24:15.697Z,225
2022-11-02T09:29:16.206Z,225
2022-11-02T09:34:15.594Z,225
2022-11-02T09:39:16.065Z,225
2022-11-02T09:44:15.619Z,248
2022-11-02T09:49:15.662Z,248
2022-11-02T09:54:17.632Z,248
2022-11-02T09:59:15.502Z,248
2022-11-02T10:04:15.522Z,225
2022-11-02T10:09:15.548Z,225
2022-11-02T10:14:16.122Z,225
2022-11-02T10:19:15.362Z,225
2022-11-02T10:24:15.763Z,248
2022-11-02T10:29:16.293Z,248
2022-11-02T10:34:15.593Z,225
2022-11-02T10:39:15.885Z,225
2022-11-02T10:44:15.515Z,225
2022-11-02T10:49:15.756Z,225
2022-11-02T10:54:19.445Z,248
2022-11-02T10:59:15.766Z,248
2022-11-02T11:04:15.946Z,248
2022-11-02T11:09:16.411Z,248
2022-11-02T11:19:41.130Z,248
2022-11-02T11:24:16.029Z,248
2022-11-02T11:29:15.594Z,248
2022-11-02T11:34:15.971Z,225
2022-11-02T11:39:16.413Z,225
2022-11-02T11:44:15.848Z,248
2022-11-02T11:49:16.366Z,248
2022-11-02T11:54:15.600Z,248
2022-11-02T11:59:15.803Z,248
2022-11-02T12:04:16.005Z,248
2022-11-02T12:09:16.339Z,248
2022-11-02T12:14:16.065Z,248
2022-11-02T12:19:15.494Z,248
2022-11-02T12:24:16.042Z,225
2022-11-02T12:29:15.608Z,225
2022-11-02T12:34:16.229Z,225
2022-11-02T12:39:16.163Z,225
2022-11-02T12:44:15.759Z,248
2022-11-02T12:49:16.625Z,248
2022-11-02T12:54:15.865Z,248
2022-11-02T12:59:16.044Z,248
2022-11-02T13:04:16.336Z,248
2022-11-02T13:09:15.662Z,248
2022-11-02T13:14:16.254Z,225
2022-11-02T13:19:16.022Z,225
2022-11-02T13:24:16.171Z,248
2022-11-02T13:29:16.267Z,248
2022-11-02T13:34:15.513Z,225
2022-11-02T13:39:16.252Z,225
2022-11-02T13:44:15.638Z,248
2022-11-02T13:49:16.016Z,248
2022-11-02T13:54:16.293Z,248
2022-11-02T13:59:15.583Z,248
2022-11-02T14:04:16.403Z,248
2022-11-02T14:09:15.726Z,248
2022-11-02T14:14:16.015Z,292
2022-11-02T14:19:19.159Z,292
2022-11-02T14:24:16.062Z,315
2022-11-02T14:29:16.241Z,315
2022-11-02T14:34:16.041Z,270
2022-11-02T14:39:15.978Z,270
2022-11-02T14:44:15.569Z,270
2022-11-02T14:49:15.896Z,270
2022-11-02T14:54:16.110Z,270
2022-11-02T14:59:16.088Z,270
2022-11-02T15:04:16.269Z,225
2022-11-02T15:09:15.928Z,225
2022-11-02T15:14:16.176Z,225
2022-11-02T15:19:15.642Z,225
2022-11-02T15:24:17.331Z,248
2022-11-02T15:29:16.131Z,248
2022-11-02T15:34:16.351Z,225
2022-11-02T15:39:16.489Z,225
2022-11-02T15:44:16.214Z,202
2022-11-02T15:49:16.073Z,202
2022-11-02T15:54:15.873Z,225
2022-11-02T15:59:16.244Z,225
2022-11-02T16:04:16.000Z,225
2022-11-02T16:09:15.956Z,225
2022-11-02T16:14:16.254Z,225
2022-11-02T16:19:15.555Z,225
2022-11-02T16:24:16.029Z,202
2022-11-02T16:29:16.479Z,202
2022-11-02T16:34:15.842Z,225
2022-11-02T16:39:16.422Z,225
2022-11-02T16:44:16.324Z,248
2022-11-02T16:49:15.664Z,248
2022-11-02T16:54:16.006Z,202
2022-11-02T16:59:15.610Z,202
2022-11-02T17:04:16.080Z,202
2022-11-02T17:09:16.429Z,202
2022-11-02T17:14:15.864Z,202
2022-11-02T17:19:15.977Z,202
2022-11-02T17:24:16.323Z,202
2022-11-02T17:29:15.711Z,202
2022-11-02T17:34:15.983Z,202
2022-11-02T17:39:15.916Z,202
2022-11-02T17:44:16.249Z,202
2022-11-02T17:49:16.394Z,202
2022-11-02T17:54:16.584Z,202
2022-11-02T17:59:15.770Z,202
2022-11-02T18:04:16.610Z,202
2022-11-02T18:09:15.762Z,202
2022-11-02T18:14:15.990Z,202
2022-11-02T18:19:16.303Z,202
2022-11-02T18:24:16.700Z,202
2022-11-02T18:29:15.895Z,202
2022-11-02T18:34:16.292Z,202
2022-11-02T18:39:16.144Z,202
2022-11-02T18:44:16.216Z,202
2022-11-02T18:49:16.323Z,202
2022-11-02T18:54:16.568Z,202
2022-11-02T18:59:15.872Z,202
2022-11-02T19:04:17.362Z,202
2022-11-02T19:09:16.285Z,202
2022-11-02T19:14:16.542Z,202
2022-11-02T19:19:15.718Z,202
2022-11-02T19:24:16.416Z,202
2022-11-02T19:29:16.641Z,202
2022-11-02T19:34:15.914Z,202
2022-11-02T19:39:15.835Z,202
2022-11-02T19:44:16.080Z,202
2022-11-02T19:49:16.224Z,202
2022-11-02T19:54:16.614Z,202
2022-11-02T19:59:15.903Z,202
2022-11-02T20:04:16.144Z,202
2022-11-02T20:09:16.576Z,202
2022-11-02T20:14:15.781Z,202
2022-11-02T20:19:16.079Z,202
2022-11-02T20:24:16.219Z,202
2022-11-02T20:29:18.168Z,202
2022-11-02T20:34:15.785Z,202
2022-11-02T20:39:15.959Z,202
2022-11-02T20:44:16.452Z,180
2022-11-02T20:49:22.062Z,180
2022-11-02T20:54:16.671Z,180
2022-11-02T20:59:16.211Z,180
2022-11-02T21:04:20.784Z,180
2022-11-02T21:09:16.548Z,180
2022-11-02T21:14:15.997Z,180
2022-11-02T21:19:16.264Z,180
2022-11-02T21:24:15.915Z,180
2022-11-02T21:29:16.156Z,180
2022-11-02T21:34:16.400Z,180
2022-11-02T21:39:15.724Z,180
2022-11-02T21:44:16.431Z,158
2022-11-02T21:49:15.907Z,158
2022-11-02T21:54:16.276Z,158
2022-11-02T21:59:16.490Z,158
2022-11-02T22:04:16.296Z,158
2022-11-02T22:09:16.552Z,158
2022-11-02T22:14:16.036Z,158
2022-11-02T22:19:16.170Z,158
2022-11-02T22:24:16.466Z,158
2022-11-02T22:29:15.754Z,158
2022-11-02T22:34:15.926Z,158
2022-11-02T22:39:15.979Z,158
2022-11-02T22:44:16.139Z,158
2022-11-02T22:49:16.237Z,158
2022-11-02T22:54:16.647Z,158
2022-11-02T22:59:16.049Z,158
2022-11-02T23:04:16.592Z,180
2022-11-02T23:09:15.973Z,180
2022-11-02T23:14:15.997Z,158
2022-11-02T23:19:18.941Z,158
2022-11-02T23:24:16.747Z,180
2022-11-02T23:29:15.973Z,180
2022-11-02T23:34:16.093Z,180
2022-11-02T23:39:16.282Z,180
2022-11-02T23:44:16.622Z,158
2022-11-02T23:49:16.699Z,158
2022-11-02T23:54:15.989Z,158
2022-11-02T23:59:16.034Z,158
